Gällivare Airport

ESNG · 北博滕, 瑞典

METAR的历史 ESNG · Gällivare Airport

下面你可以看到过去几天的METARs。 选择年份以浏览从2007年开始的旧METAR。

2022年12月9日

时间 代码 天气 温度 能见度 天花板 METAR/SPECI
16:50
M
0 °C 9 km 2.000 ft 060° 060° 14 kt METAR ESNG 091550Z AUTO 06014KT 9000 -SN BKN020/// OVC026/// ///// Q1016
16:20
M
-6 °C 10 km+ 1.800 ft 040° 040° 15 kt METAR ESNG 091520Z 04015KT 9999 -SN FEW009 OVC018 M06/M07 Q1016
15:50
M
-6 °C 8 km 1.300 ft 040° 040° 12 kt METAR ESNG 091450Z 04012KT 8000 -SN VV013 M06/M08 Q1015
15:20
I
-5 °C 3,8 km 1.700 ft 040° 040° 11 kt METAR ESNG 091420Z 04011KT 3800 -SN VV017 M05/M07 Q1016
14:50
I
-6 °C 2,5 km 900 ft 040° 040° 10 kt METAR ESNG 091350Z 04010KT 2500 -SN VV009 M06/M08 Q1015
14:20
I
0 °C 4,6 km 1.400 ft 030° 030° 6 kt METAR ESNG 091320Z AUTO 03006KT 4600 -SN VV014 ///// Q1015
13:50
I
0 °C 3,4 km 1.300 ft 070° 070° 14 kt METAR ESNG 091250Z AUTO 07014KT 3400 -SN VV013 ///// Q1015
13:20
M
-6 °C 5 km 1.800 ft 060° 060° 14 - 26 kt METAR ESNG 091220Z 06014G26KT 5000 -SN VV018 M06/// Q1015
12:50
I
-6 °C 1,9 km 1.200 ft 050° 050° 10 kt METAR ESNG 091150Z 05010KT 1900 -SN VV012 M06/// Q1015
12:20
M
-6 °C 7 km 2.800 ft 050° 050° 11 kt METAR ESNG 091120Z 05011KT 020V080 7000 -SN FEW016 BKN028 M06/// Q1014
11:50
I
0 °C 1,8 km 1.400 ft 040° 040° 7 kt METAR ESNG 091050Z 04007KT 360V090 1800 -SN VV014 TM06/// Q1014
11:20
I
-6 °C 1,6 km 1.000 ft 050° 050° 10 kt METAR ESNG 091020Z 05010KT 1600 SN VV010 M06/// Q1014
10:50
M
-6 °C 8 km 2.200 ft 030° 030° 11 kt METAR ESNG 090950Z 03011KT 8000 -SN SCT010 BKN022 BKN028 M06/// Q1014
10:20
M
0 °C 7 km 2.100 ft 020° 020° 10 kt METAR ESNG 090920Z AUTO 02010KT 7000 -SN SCT010/// OVC021/// ///// Q1014
09:50
I
-6 °C 9 km 900 ft 020° 020° 10 kt METAR ESNG 090850Z 02010KT 9000 -SN VV009 M06/// Q1013
09:20
M
-6 °C 5 km 1.100 ft 020° 020° 12 kt METAR ESNG 090820Z 02012KT 5000 -SN VV011 M06/// Q1013
08:50
I
-6 °C 3,4 km 700 ft 010° 010° 8 kt METAR ESNG 090750Z 01008KT 3400 SN VV007 M06/// Q1013
08:20
I
-5 °C 4,4 km 1.700 ft 020° 020° 10 kt METAR ESNG 090720Z 02010KT 4400 -SN VV017 M05/// Q1013
07:50
M
-5 °C 10 km+ 1.600 ft 010° 010° 10 kt METAR ESNG 090650Z 01010KT 340V040 9999 -SN FEW006 BKN016 BKN021 M05/// Q1013
07:20
I
-5 °C 9 km 600 ft 020° 020° 10 kt METAR ESNG 090620Z 02010KT 9000 -SN VV006 M05/// Q1013
06:50
V
-5 °C 10 km+ - 020° 020° 12 kt METAR ESNG 090550Z 02012KT 350V050 9999 -SN FEW022 M05/// Q1013
06:20
V
-5 °C 8 km - 020° 020° 10 kt METAR ESNG 090520Z 02010KT 360V060 8000 -SN FEW006 SCT009 M05/// Q1013
05:50
I
-5 °C 5 km 900 ft 020° 020° 10 kt METAR ESNG 090450Z 02010KT 5000 -SN VV009 M05/// Q1013
05:20
I
-6 °C 8 km 900 ft 030° 030° 11 kt METAR ESNG 090420Z 03011KT 8000 -SN VV009 M06/// Q1013
04:50
I
-6 °C 4 km 900 ft 030° 030° 12 kt METAR ESNG 090350Z 03012KT 4000 -SN VV009 M06/// Q1013
04:20
M
0 °C 8 km 2.100 ft 040° 040° 14 kt METAR ESNG 090320Z AUTO 04014KT 8000 -SN FEW007/// SCT016/// BKN021/// ///// Q1013
03:50
I
0 °C 6 km 900 ft 050° 050° 13 kt METAR ESNG 090250Z AUTO 05013KT 6000 -SN VV009 ///// Q1012
03:20
M
0 °C 10 km+ 2.100 ft 040° 040° 13 kt METAR ESNG 090220Z AUTO 04013KT 9999 -SN SCT016/// BKN021/// BKN026/// ///// Q1012
02:50
M
0 °C 5 km 1.500 ft 040° 040° 9 kt METAR ESNG 090150Z AUTO 04009KT 5000 -SN FEW011/// BKN015/// BKN024/// ///// Q1012
02:20
I
0 °C 4,7 km - 040° 040° 10 kt METAR ESNG 090120Z AUTO 04010KT 4700 -SN ///021 ///// Q1012
01:50
M
0 °C 5 km 1.300 ft 050° 050° 9 kt METAR ESNG 090050Z AUTO 05009KT 5000 -SN FEW010/// BKN013/// OVC019/// ///// Q1012
01:20
M
0 °C 6 km 1.000 ft 040° 040° 9 kt METAR ESNG 090020Z AUTO 04009KT 6000 -SN VV010 ///// Q1012
00:50
M
0 °C 6 km 1.600 ft 040° 040° 11 kt METAR ESNG 082350Z AUTO 04011KT 6000 -SN SCT009/// OVC016/// ///// Q1012
00:20
I
0 °C 6 km 900 ft 040° 040° 10 kt METAR ESNG 082320Z AUTO 04010KT 6000 -SN VV009 ///// Q1012

2022年12月8日

时间 代码 天气 温度 能见度 天花板 METAR/SPECI
23:50
I
0 °C 2,9 km 1.400 ft 040° 040° 11 kt METAR ESNG 082250Z AUTO 04011KT 2900 -SN SCT009/// BKN014/// OVC020/// ///// Q1012
23:20
M
0 °C 10 km+ 1.200 ft 040° 040° 10 kt METAR ESNG 082220Z AUTO 04010KT 9999 -SN BKN012/// OVC015/// ///// Q1012
22:50
I
0 °C 2,2 km 1.600 ft 050° 050° 10 kt METAR ESNG 082150Z AUTO 05010KT 2200 -SN FEW009/// OVC016/// ///// Q1012
22:20
M
0 °C 8 km 1.400 ft 040° 040° 10 kt METAR ESNG 082120Z AUTO 04010KT 8000 -SN BKN014/// OVC034/// ///// Q1012
21:50
I
-6 °C 4,2 km 1.000 ft 040° 040° 10 kt METAR ESNG 082050Z 04010KT 4200 -SN VV010 M06/M08 Q1012
21:20
M
-6 °C 5 km 1.700 ft 040° 040° 11 kt METAR ESNG 082020Z 04011KT 5000 -SN FEW010 OVC017 M06/M08 Q1012
20:50
I
-6 °C 3,3 km 1.200 ft 040° 040° 11 kt METAR ESNG 081950Z 04011KT 3300 -SN VV012 M06/M08 Q1011
19:50
I
-6 °C 4,6 km 1.600 ft 040° 040° 8 kt METAR ESNG 081850Z 04008KT 4600 -SN VV016 M06/M08 Q1011
18:50
I
-5 °C 2,6 km 1.100 ft 030° 030° 9 kt METAR ESNG 081750Z 03009KT 2600 -SN VV011 M05/M08 Q1011
18:20
I
-6 °C 3,5 km 1.000 ft 040° 040° 9 kt METAR ESNG 081720Z 04009KT 3500 -SN VV010 M06/M08 Q1011
17:50
I
-7 °C 2,4 km 1.100 ft 040° 040° 11 kt METAR ESNG 081650Z 04011KT 2400 -SN VV011 M07/M09 Q1010
17:20
I
-8 °C 2,4 km 1.400 ft 030° 030° 11 kt METAR ESNG 081620Z 03011KT 2400 -SN VV014 M08/M10 Q1010
16:50
M
-7 °C 10 km+ 2.200 ft 030° 030° 10 kt METAR ESNG 081550Z 03010KT 9999 -SN FEW016 BKN022 BKN029 M07/M09 Q1010
16:20
V
-6 °C 10 km+ 4.900 ft 030° 030° 11 kt METAR ESNG 081520Z 03011KT 9999 -SN FEW017 SCT032 OVC049 M06/M09 Q1010
15:50
V
-5 °C 8 km 3.600 ft 020° 020° 11 kt METAR ESNG 081450Z 02011KT 340V040 8000 -SN FEW009 BKN036 OVC055 M05/M08 Q1010
14:50
I
0 °C 2,5 km 900 ft 020° 020° 10 kt METAR ESNG 081350Z AUTO 02010KT 2500 -SN VV009 ///// Q1010
14:20
M
0 °C 5 km 1.400 ft 010° 010° 9 kt METAR ESNG 081320Z AUTO 01009KT 5000 -SN VV014 ///// Q1010
13:50
I
0 °C 3,3 km 1.000 ft 010° 010° 7 kt METAR ESNG 081250Z AUTO 01007KT 340V070 3300 -SN VV010 ///// Q1010
13:20
M
0 °C 10 km+ 1.000 ft 360° 360° 7 kt METAR ESNG 081220Z AUTO 36007KT 9999 SCT008/// BKN010/// OVC013/// ///// Q1010 RESN
12:50
I
0 °C 10 km+ 800 ft 010° 010° 8 kt METAR ESNG 081150Z AUTO 01008KT 340V040 9999 OVC008/// ///// Q1010
12:20
I
0 °C 10 km+ 800 ft 020° 020° 6 kt METAR ESNG 081120Z AUTO 02006KT 340V060 9999 OVC008/// ///// Q1011
11:50
I
0 °C 10 km+ 600 ft 020° 020° 3 kt METAR ESNG 081050Z AUTO 02003KT 330V060 9999 OVC006/// ///// Q1011
11:20
I
0 °C 10 km+ 600 ft 020° 020° 5 kt METAR ESNG 081020Z 02005KT 350V060 9999 BKN006 OVC009 MS08/// Q1011
10:50
I
-8 °C 10 km+ 900 ft 040° 040° 7 kt METAR ESNG 080950Z 04007KT 010V070 9999 BKN009 OVC010 M08/// Q1011
10:20
I
-8 °C 10 km+ 900 ft 030° 030° 6 kt METAR ESNG 080920Z 03006KT 010V070 9999 OVC009 M08/// Q1011
09:50
I
-8 °C 10 km+ 800 ft 040° 040° 9 kt METAR ESNG 080850Z 04009KT 360V070 9999 OVC008 M08/// Q1011
09:20
I
-9 °C 10 km+ 600 ft 020° 020° 6 kt METAR ESNG 080820Z 02006KT 350V060 9999 OVC006 M09/// Q1011
08:50
I
-9 °C 10 km+ 600 ft 030° 030° 6 kt METAR ESNG 080750Z 03006KT 350V060 9999 OVC006 M09/// Q1011
08:20
I
-9 °C 10 km+ 600 ft 050° 050° 9 kt METAR ESNG 080720Z 05009KT 9999 SG OVC006 M09/// Q1011
07:50
I
-9 °C 10 km+ 500 ft 070° 070° 8 kt METAR ESNG 080650Z 07008KT 9999 OVC005 M09/// Q1010
07:20
I
-9 °C 10 km+ 600 ft 070° 070° 7 kt METAR ESNG 080620Z AUTO 07007KT 9999 OVC006/// M09/// Q1010 REDZ
06:50
I
-8 °C 10 km+ 600 ft 040° 040° 7 kt METAR ESNG 080550Z 04007KT 9999 OVC006 M08/// Q1010
06:20
I
-8 °C 10 km+ 500 ft 080° 080° 8 kt METAR ESNG 080520Z 08008KT 9999 OVC005 M08/// Q1010
05:50
I
-8 °C 10 km+ 500 ft 080° 080° 7 kt METAR ESNG 080450Z 08007KT 040V110 9999 OVC005 M08/// Q1009
05:20
I
-8 °C 10 km+ 600 ft 090° 090° 10 kt METAR ESNG 080420Z 09010KT 9999 OVC006 M08/// Q1009
04:50
I
-7 °C 10 km+ 600 ft 080° 080° 10 kt METAR ESNG 080350Z 08010KT 9999 OVC006 M07/// Q1009
04:20
I
-7 °C 10 km+ 600 ft 090° 090° 5 kt METAR ESNG 080320Z AUTO 09005KT 9999 -SN OVC006/// M07/// Q1009
03:50
I
-7 °C 10 km+ 700 ft 090° 090° 5 kt METAR ESNG 080250Z AUTO 09005KT 9999 -SN FEW004/// BKN007/// OVC009/// M07/// Q1009
03:20
I
-7 °C 8 km 600 ft 080° 080° 6 kt METAR ESNG 080220Z AUTO 08006KT 8000 -SN OVC006/// M07/// Q1008
02:50
I
-7 °C 10 km+ 600 ft 090° 090° 7 kt METAR ESNG 080150Z AUTO 09007KT 9999 -SN OVC006/// M07/// Q1008
02:20
I
-7 °C 10 km+ 600 ft 070° 070° 8 kt METAR ESNG 080120Z AUTO 07008KT 9999 -SN OVC006/// M07/// Q1008
01:50
I
-7 °C 8 km 500 ft 080° 080° 6 kt METAR ESNG 080050Z AUTO 08006KT 8000 -SN OVC005/// M07/// Q1008
01:20
I
-8 °C 10 km+ 500 ft 070° 070° 4 kt METAR ESNG 080020Z AUTO 07004KT 9999 -SN OVC005/// M08/// Q1007
00:50
I
-8 °C 10 km+ 500 ft 090° 090° 3 kt METAR ESNG 072350Z AUTO 09003KT 9999 -SN OVC005/// M08/// Q1007
00:20
I
-8 °C 10 km+ 500 ft 110° 110° 4 kt METAR ESNG 072320Z AUTO 11004KT 9999 -FZDZ OVC005/// M08/// Q1007

2022年12月7日

时间 代码 天气 温度 能见度 天花板 METAR/SPECI
23:50
I
-8 °C 10 km+ 500 ft Var Var 1 kt METAR ESNG 072250Z AUTO VRB01KT 9999 -SN OVC005/// M08/// Q1007
23:20
I
-9 °C 6 km 500 ft Var Var 2 kt METAR ESNG 072220Z AUTO VRB02KT 6000 -SN OVC005/// M09/// Q1006
22:50
I
-9 °C 2,1 km 600 ft Var 000° 0 kt METAR ESNG 072150Z AUTO 00000KT 2100 -SN BKN006/// OVC009/// M09/// Q1006
22:20
I
-9 °C 5 km 500 ft Var 000° 0 kt METAR ESNG 072120Z AUTO 00000KT 5000 -SN OVC005/// M09/// Q1006
21:50
L
-9 °C 3,9 km 400 ft Var 000° 0 kt METAR ESNG 072050Z 00000KT 3900 -SN OVC004 M09/// Q1006 RESG
21:20
I
-9 °C 10 km+ 600 ft 190° 190° 2 kt METAR ESNG 072020Z AUTO 19002KT 9999 SG BKN006/// OVC008/// M09/// Q1005
20:50
I
-10 °C 2,6 km 1.000 ft 170° 170° 2 kt METAR ESNG 071950Z AUTO 17002KT 2600 -SN OVC010/// M10/// Q1005
20:20
M
-10 °C 10 km+ 1.100 ft 120° 120° 2 kt METAR ESNG 071920Z AUTO 12002KT 9999 -SN BKN011/// OVC022/// M10/// Q1005
19:50
I
-10 °C 2,7 km 2.200 ft 160° 160° 1 kt METAR ESNG 071850Z AUTO 16001KT 2700 -SN SCT011/// OVC022/// M10/// Q1004
19:20
I
-10 °C 4,8 km 1.500 ft Var 000° 0 kt METAR ESNG 071820Z AUTO 00000KT 4800 -SN VV015 M10/// Q1004
18:50
I
-10 °C 3,9 km 1.300 ft Var 000° 0 kt METAR ESNG 071750Z AUTO 00000KT 3900 -SN OVC013/// M10/// Q1004
18:20
I
-10 °C 2,6 km 900 ft Var 000° 0 kt METAR ESNG 071720Z AUTO 00000KT 2600 -SN VV009 M10/// Q1004
17:50
I
-10 °C 2 km 900 ft 170° 170° 1 kt METAR ESNG 071650Z AUTO 17001KT 2000 -SN VV009 M10/// Q1003
17:20
L
-10 °C 1 km 700 ft Var 000° 0 kt METAR ESNG 071620Z 00000KT 1000 R30/P1500N -SN VV007 M10/// Q1003
16:50
I
-10 °C 1,7 km 700 ft Var 000° 0 kt METAR ESNG 071550Z AUTO 00000KT 1700 -SN VV007 M10/// Q1003
16:20
I
-10 °C 2,3 km 900 ft 290° 290° 3 kt METAR ESNG 071520Z 29003KT 2300 -SN VV009 M10/// Q1003
15:50
I
-11 °C 3,1 km 900 ft 310° 310° 6 kt METAR ESNG 071450Z 31006KT 3100 -SN VV009 M11/// Q1003
15:20
I
-11 °C 9 km 600 ft 300° 300° 6 kt METAR ESNG 071420Z 30006KT 9000 SG BKN006 BKN008 OVC013 M11/// Q1003
14:50
I
-12 °C 10 km+ 700 ft 310° 310° 4 kt METAR ESNG 071350Z 31004KT 9999 OVC007 M12/// Q1003
14:20
M
-13 °C 10 km+ 1.000 ft 320° 320° 3 kt METAR ESNG 071320Z AUTO 32003KT 9999 SCT008/// OVC010/// M13/// Q1003
13:50
M
-14 °C 10 km+ 1.100 ft 310° 310° 4 kt METAR ESNG 071250Z AUTO 31004KT 9999 BKN011/// OVC015/// M14/// Q1003
13:20
V
-14 °C 10 km+ - Var Var 2 kt METAR ESNG 071220Z AUTO VRB02KT 9999 SCT015/// M14/// Q1002
12:50
V
-14 °C 10 km+ - 270° 270° 5 kt METAR ESNG 071150Z AUTO 27005KT 9999 NCD M14/// Q1002
12:20
V
-14 °C 10 km+ - 260° 260° 2 kt METAR ESNG 071120Z AUTO 26002KT 9999 NCD M14/// Q1002
11:50
V
-14 °C 10 km+ - 290° 290° 4 kt METAR ESNG 071050Z 29004KT CAVOK M14/// Q1002
11:20
V
-15 °C 10 km+ - 320° 320° 3 kt METAR ESNG 071020Z 32003KT CAVOK M15/// Q1002
10:50
V
-14 °C 10 km+ - 320° 320° 7 kt METAR ESNG 070950Z 32007KT CAVOK M14/// Q1002

我们和第三方通过cookies跟踪您在我们网站上的互联网行为。如果你继续,我们认为你同意我们的饼干政策